Tiempo atmosférico en la estación meteorológica de Cortes De La Frontera, Málaga (315 m.)



Fecha
DESCASC
Temp. máxima en grados centígrados (hora)
DESCASC
Temp. mínima en grados centígrados (hora)
DESCASC
Temp. media en grados centígrados
DESCASC
Racha de viento máxima en m/sg (hora)
DESCASC
Velocidad máxima media en intervalos de 10 minutos(hora)
DESCASC
Precipitaciones diarias en mm
DESCASC
Precipitaciones de 00:00 a 06:00 en mm
DESCASC
Precipitaciones de 06:00 a 12:00 en mm
DESCASC
Precipitaciones de 12:00 a 18:00 en mm
DESCASC
Precipitaciones de 18:00 a 24:00 en mm
DESCASC
18-01-2018 16.5 (13:10) 6.4 (00:40) 11.5 8.61 (08:40) 3.06 (10:30) 0 0 0 0 0
17-01-2018 20.8 (12:30) 6.7 (23:50) 13.7 6.39 (11:50) 1.67 (11:10) 0 0 0 0 0
16-01-2018 14.7 (15:20) 1.7 (08:50) 8.2 4.72 (21:50) 1.39 (12:50) 0 0 0 0 0
15-01-2018 13.5 (12:50) 3.6 (01:50) 8.5 6.67 (10:20) 1.94 (08:00) 0 0 0 0 0
14-01-2018 9.9 (16:40) 4.5 (00:00) 7.2 3.61 (17:10) 1.11 (16:50) 3.4 0 2.2 1 0.2
13-01-2018 10.7 (17:10) 2.8 (00:00) 6.7 3.61 (19:50) 1.11 (19:30) 2.6 0 0 2.6 0
12-01-2018 14.9 (13:10) 2.9 (00:00) 8.9 4.17 (14:00) 1.67 (14:00) 0 0 0 0 0
11-01-2018 12.8 (15:40) 5.8 (00:00) 9.3 7.78 (13:10) 2.22 (12:40) 0.2 0.2 0 0 0
10-01-2018 15.6 (12:50) 8.2 (00:00) 11.9 7.78 (14:50) 1.67 (13:40) 7.4 6.6 0 0.6 0.2
09-01-2018 10 (20:00) 1 (00:00) 5.5 4.72 (19:00) 1.11 (19:00) 8 0 0 4 4
08-01-2018 7.9 (17:10) 2.3 (00:00) 5.1 5.83 (09:20) 1.94 (09:20) 20.6 0.2 18.6 1.8 0
07-01-2018 9.2 (16:30) 1.1 (00:00) 5.1 3.89 (00:50) 1.39 (12:50) 0 0 0 0 0
06-01-2018 12.2 (00:00) 4 (00:00) 8.1 8.61 (10:30) 2.22 (13:50) 28.6 18.4 10.2 0 0
05-01-2018 15.6 (13:50) 10.8 (00:00) 13.2 6.11 (23:40) 1.39 (00:30) 0 0 0 0 0
04-01-2018 21.5 (12:40) 8.8 (08:40) 15.2 8.89 (16:00) 2.78 (16:00) 0 0 0 0 0
03-01-2018 21 (15:20) 10.5 (00:00) 15.8 8.33 (10:20) 2.78 (10:30) 0 0 0 0 0
02-01-2018 20.4 (12:50) 6.4 (00:00) 13.4 7.78 (21:50) 2.5 (23:20) 0 0 0 0 0
01-01-2018 18.3 (14:00) 5.3 (00:00) 11.8 6.39 (21:50) 2.5 (11:10) 0 0 0 0 0
31-12-2017 16 (14:00) 7.7 (00:00) 11.8 4.72 (22:50) 1.39 (13:50) 0 0 0 0 0
30-12-2017 19.3 (15:30) 8.5 (00:00) 13.9 5.83 (02:10) 1.11 (01:50) 0 0 0 0 0
29-12-2017 15.3 (15:40) 10.6 (00:00) 13 5.28 (17:00) 1.94 (16:10) 0.6 0.4 0.2 0 0
28-12-2017 14.4 (13:40) 11.3 (00:00) 12.8 6.67 (10:00) 1.39 (06:40) 14.8 1.6 5.8 4.6 2.8
27-12-2017 15 (13:30) 10.6 (00:00) 12.8 8.89 (06:20) 1.94 (09:40) 10 1.2 8.6 0.2 0
26-12-2017 13.3 (11:30) 7.9 (00:00) 10.6 10.28 (15:40) 2.22 (15:50) 8 1.4 6.6 0 0
25-12-2017 12.6 (13:20) 6.3 (00:00) 9.5 2.22 (13:10) 0.83 (13:10) 8 0 0 0.4 7.6
24-12-2017 14.8 (16:00) 7.1 (00:00) 11 6.11 (15:10) 1.67 (16:20) 0 0 0 0 0

Gráficas

Temp. máximas Temp. mínimas Temp. medias Precipitaciones Rachas de viento máximas Velocidades máximas media en intervalos de 10 minutos

Datos horarios

Fecha y hora oficial Temperatura (ºC) Velocidad del viento (km/h) Dirección del viento Racha (km/h) Dirección de racha Precipitación (mm) Presión (hPa) Tendencia (hPa) Humedad (%)
2018-01-22 23:00:00 11.3 0 Calma 5 Noroeste 0 -- -- 75
2018-01-22 22:00:00 13 2 Norte 13 Noroeste 0 -- -- 70
2018-01-22 21:00:00 13.9 2 Norte 15 Norte 0 -- -- 69
2018-01-22 20:00:00 14.4 3 Noroeste 18 Norte 0 -- -- 70
2018-01-22 19:00:00 15.5 5 Norte 19 Nordeste 0 -- -- 67
2018-01-22 18:00:00 17.5 6 Norte 15 Norte 0 -- -- 63
2018-01-22 17:00:00 19.3 6 Norte 22 Noroeste 0 -- -- 60
2018-01-22 16:00:00 20.8 6 Norte 18 Norte 0 -- -- 51
2018-01-22 15:00:00 21.1 4 Este 14 Sur 0 -- -- 52
2018-01-22 14:00:00 21.4 5 Sur 16 Sur 0 -- -- 50
2018-01-22 13:00:00 22.6 3 Noroeste 16 Sudeste 0 -- -- 38
2018-01-22 12:00:00 19.6 5 Sur 10 Sudeste 0 -- -- 51
2018-01-22 11:00:00 16.4 3 Sudoeste 10 Sudeste 0 -- -- 60
2018-01-22 10:00:00 12 3 Sudoeste 6 Sur 0 -- -- 73
2018-01-22 09:00:00 8.3 0 Calma 5 Oeste 0 -- -- 85
2018-01-22 08:00:00 8.7 0 Calma 4 Noroeste 0 -- -- 83
2018-01-22 07:00:00 9.9 2 Norte 8 Este 0 -- -- 79
2018-01-22 06:00:00 10.6 3 Sur 14 Noroeste 0 -- -- 75
2018-01-22 05:00:00 9.5 2 Oeste 5 Sudoeste 0 -- -- 83
2018-01-22 04:00:00 10 3 Norte 13 Este 0 -- -- 81
2018-01-22 03:00:00 10.3 2 Norte 4 Noroeste 0 -- -- 80
2018-01-22 02:00:00 11 0 Calma 9 Este 0 -- -- 77
2018-01-22 01:00:00 12.4 2 Sudoeste 25 Norte 0 -- -- 69
2018-01-22 00:00:00 12.5 5 Noroeste 16 Norte 0 -- -- 68
2018-01-21 23:00:00 10.5 0 Calma 4 Noroeste 0 -- -- 82
2018-01-21 22:00:00 11.1 0 Calma 13 Norte 0 -- -- 78
2018-01-21 21:00:00 11.8 3 Norte 14 Norte 0 -- -- 77
2018-01-21 20:00:00 12.7 2 Nordeste 16 Norte 0 -- -- 73
2018-01-21 19:00:00 14 6 Norte 18 Norte 0 -- -- 68
2018-01-21 18:00:00 15.4 2 Noroeste 19 Noroeste 0 -- -- 64
2018-01-21 17:00:00 17.1 6 Noroeste 26 Norte 0 -- -- 60
2018-01-21 16:00:00 18.2 8 Norte 22 Noroeste 0 -- -- 57
2018-01-21 15:00:00 19 6 Norte 24 Noroeste 0 -- -- 54
2018-01-21 14:00:00 19.1 9 Norte 27 Norte 0 -- -- 52
2018-01-21 13:00:00 20.4 6 Norte 17 Noroeste 0 -- -- 48
2018-01-21 12:00:00 20.1 3 Sudeste 10 Este 0 -- -- 44
2018-01-21 11:00:00 17.3 4 Sudeste 10 Sudeste 0 -- -- 51
2018-01-21 10:00:00 11.8 0 Calma 4 Noroeste 0 -- -- 74
2018-01-21 09:00:00 7.7 0 Calma 5 Norte 0 -- -- 80
2018-01-21 08:00:00 7.2 2 Norte 4 Noroeste 0 -- -- 81
2018-01-21 07:00:00 7.1 2 Norte 4 Norte 0 -- -- 82
2018-01-21 06:00:00 7.8 2 Noroeste 4 Noroeste 0 -- -- 80
2018-01-21 05:00:00 8.1 3 Norte 11 Norte 0 -- -- 80
2018-01-21 04:00:00 6.9 2 Noroeste 4 Noroeste 0 -- -- 82
2018-01-21 03:00:00 7.8 0 Calma 6 Norte 0 -- -- 81
2018-01-21 02:00:00 8.6 0 Calma 5 Sur 0 -- -- 81
2018-01-21 01:00:00 9.3 3 Sudoeste 10 Noroeste 0 -- -- 77
2018-01-21 00:00:00 9.6 2 Noroeste 8 Nordeste 0 -- -- 81
2018-01-20 23:00:00 9.4 2 Noroeste 4 Noroeste 0 -- -- 84
2018-01-20 22:00:00 10.9 0 Calma 16 Noroeste 0 -- -- 78
2018-01-20 21:00:00 10.8 2 Noroeste 9 Noroeste 0 -- -- 80
2018-01-20 20:00:00 11.6 3 Noroeste 15 Oeste 0 -- -- 77
2018-01-20 19:00:00 12.3 4 Noroeste 14 Noroeste 0 -- -- 74
2018-01-20 18:00:00 14.1 5 Norte 19 Noroeste 0 -- -- 70
2018-01-20 17:00:00 16.5 7 Norte 20 Norte 0 -- -- 62
2018-01-20 16:00:00 17.8 7 Norte 22 Noroeste 0 -- -- 55
2018-01-20 15:00:00 18.3 7 Norte 17 Noroeste 0 -- -- 53
2018-01-20 14:00:00 18.1 5 Norte 18 Nordeste 0 -- -- 48
2018-01-20 13:00:00 18.3 3 Noroeste 15 Sudeste 0 -- -- 50
2018-01-20 12:00:00 17.1 4 Sur 17 Sudeste 0 -- -- 54
2018-01-20 11:00:00 14.4 3 Este 12 Sudeste 0 -- -- 61
2018-01-20 10:00:00 12.1 3 Nordeste 13 Norte 0 -- -- 75
2018-01-20 09:00:00 7.1 0 Calma 11 Norte 0 -- -- 93
2018-01-20 08:00:00 5.9 2 Norte 5 Norte 0 -- -- 93
2018-01-20 07:00:00 6 2 Norte 4 Norte 0 -- -- 91
2018-01-20 06:00:00 6.6 2 Norte 4 Norte 0 -- -- 89
2018-01-20 05:00:00 7.2 2 Norte 5 Noroeste 0 -- -- 87
2018-01-20 04:00:00 8 2 Norte 6 Norte 0 -- -- 84
2018-01-20 03:00:00 7.6 2 Noroeste 4 Norte 0 -- -- 90
2018-01-20 02:00:00 7.2 0 Calma 4 Norte 0 -- -- 89
2018-01-20 01:00:00 8 2 Norte 4 Norte 0 -- -- 87
2018-01-20 00:00:00 8.8 0 Calma 5 Norte 0 -- -- 85
2018-01-19 23:00:00 9.5 0 Calma 6 Sudoeste 0 -- -- 81
2018-01-19 22:00:00 10.1 3 Noroeste 10 Norte 0 -- -- 80
2018-01-19 21:00:00 10.1 3 Norte 12 Oeste 0 -- -- 82
2018-01-19 20:00:00 10.4 0 Calma 9 Oeste 0 -- -- 79
2018-01-19 19:00:00 11.6 3 Noroeste 9 Noroeste 0 -- -- 75
2018-01-19 18:00:00 13.9 2 Norte 17 Noroeste 0 -- -- 67
2018-01-19 17:00:00 15.4 5 Norte 17 Noroeste 0 -- -- 61
2018-01-19 16:00:00 16.5 5 Norte 16 Norte 0 -- -- 57
2018-01-19 15:00:00 17.1 2 Noroeste 10 Sudoeste 0 -- -- 56
2018-01-19 14:00:00 16.2 3 Sur 8 Sudoeste 0 -- -- 57
2018-01-19 13:00:00 14.5 2 Sur 6 Sur 0 -- -- 62
2018-01-19 12:00:00 11.7 2 Sudoeste 4 Sudoeste 0 -- -- 73
2018-01-19 11:00:00 9.4 0 Calma 2 Sudoeste 0 -- -- 86
2018-01-19 10:00:00 8.1 0 Calma 2 Norte 0 -- -- 86
2018-01-19 09:00:00 7.7 0 Calma 9 Sudeste 0 -- -- 86
2018-01-19 08:00:00 7.6 0 Calma 4 Norte 0 -- -- 87
2018-01-19 07:00:00 7.6 0 Calma 3 Norte 0 -- -- 88
2018-01-19 06:00:00 7.9 0 Calma 3 Noroeste 0 -- -- 86
2018-01-19 05:00:00 8.3 0 Calma 2 Norte 0 -- -- 85
2018-01-19 04:00:00 8.6 0 Calma 3 Norte 0 -- -- 81
2018-01-19 03:00:00 8.7 0 Calma 5 Sudoeste -- -- -- 80
2018-01-19 02:00:00 8.7 0 Calma 3 Norte 0 -- -- 79
2018-01-19 01:00:00 9 0 Calma 3 Norte 0 -- -- 77
2018-01-19 00:00:00 9.3 0 Calma 4 Norte 0 -- -- 76
2018-01-18 23:00:00 9.6 2 Noroeste 3 Norte 0 -- -- 74
2018-01-18 22:00:00 10 0 Calma 6 Sudeste 0 -- -- 70
2018-01-18 21:00:00 10.8 0 Calma 8 Sur 0 -- -- 68
2018-01-18 20:00:00 11.6 3 Norte 7 Nordeste 0 -- -- 59
2018-01-18 19:00:00 12.5 0 Calma 18 Sudeste 0 -- -- 59
2018-01-18 18:00:00 14.1 3 Noroeste 19 Nordeste 0 -- -- 47
2018-01-18 17:00:00 15.3 5 Este 22 Nordeste 0 -- -- 47
2018-01-18 16:00:00 15.6 5 Sudeste 28 Sudeste 0 -- -- 46
2018-01-18 15:00:00 15.4 8 Sudeste 26 Sudeste 0 -- -- 48
2018-01-18 14:00:00 16.1 6 Sudeste 24 Sudeste 0 -- -- 49
2018-01-18 13:00:00 16.4 8 Sur 20 Sudeste 0 -- -- 54
2018-01-18 12:00:00 14.4 5 Este 19 Sudeste 0 -- -- 60
2018-01-18 11:00:00 13.8 6 Sudeste 28 Sur 0 -- -- 63
2018-01-18 10:00:00 13.1 7 Sudeste 27 Este 0 -- -- 66
2018-01-18 09:00:00 12.8 6 Este 31 Sudeste 0 -- -- 61
2018-01-18 08:00:00 13 7 Sudeste 23 Sudeste 0 -- -- 59
2018-01-18 07:00:00 13.1 4 Sudeste 21 Sudeste 0 -- -- 56
2018-01-18 06:00:00 13.3 4 Sudoeste 27 Sudeste 0 -- -- 55
2018-01-18 05:00:00 13.9 4 Nordeste 24 Sudeste 0 -- -- 54
2018-01-18 04:00:00 13.7 5 Sudeste 20 Norte 0 -- -- 55
2018-01-18 03:00:00 12.9 4 Norte 17 Noroeste 0 -- -- 55
2018-01-18 02:00:00 7.7 3 Norte 13 Norte 0 -- -- 86
2018-01-18 01:00:00 6.4 2 Norte 5 Noroeste 0 -- -- 95
2018-01-18 00:00:00 6.7 0 Calma 3 Noroeste 0 -- -- 93
2018-01-17 23:00:00 7.2 2 Norte 3 Noroeste 0 -- -- 92
2018-01-17 22:00:00 7.8 0 Calma 3 Norte 0 -- -- 90
2018-01-17 21:00:00 8.7 2 Noroeste 3 Norte 0 -- -- 85
2018-01-17 20:00:00 9.9 2 Noroeste 5 Norte 0 -- -- 81
2018-01-17 19:00:00 11.6 0 Calma 4 Norte 0 -- -- 75
2018-01-17 18:00:00 13.9 0 Calma 5 Sur 0 -- -- 71
2018-01-17 17:00:00 16.8 3 Sudoeste 15 Sudeste 0 -- -- 64
2018-01-17 16:00:00 18.8 5 Sur 15 Sur 0 -- -- 55
2018-01-17 15:00:00 19.9 5 Sur 14 Sudeste 0 -- -- 53
2018-01-17 14:00:00 19.9 4 Sudeste 14 Sur 0 -- -- 46
2018-01-17 13:00:00 20.2 5 Sur 14 Sudeste 0 -- -- 46
2018-01-17 12:00:00 20.1 4 Este 23 Nordeste 0 -- -- 41
2018-01-17 11:00:00 16.8 5 Nordeste 15 Nordeste 0 -- -- 54
2018-01-17 10:00:00 11.1 0 Calma 10 Oeste 0 -- -- 84
2018-01-17 09:00:00 7.2 0 Calma 4 Noroeste 0 -- -- 90
2018-01-17 08:00:00 7.6 0 Calma 6 Norte 0 -- -- 90
2018-01-17 07:00:00 7 2 Noroeste 4 Norte 0 -- -- 92
2018-01-17 06:00:00 7.1 2 Norte 8 Norte 0 -- -- 90
2018-01-17 05:00:00 7.4 2 Norte 4 Norte 0 -- -- 90
2018-01-17 04:00:00 7.8 2 Norte 5 Norte 0 -- -- 88
2018-01-17 03:00:00 8.3 2 Norte 4 Noroeste 0 -- -- 86
2018-01-17 02:00:00 9 0 Calma 5 Sudoeste 0 -- -- 80
2018-01-17 01:00:00 10.1 3 Sudeste 11 Sudeste 0 -- -- 74
2018-01-17 00:00:00 11.6 2 Nordeste 17 Sudeste 0 -- -- 69
2018-01-16 23:00:00 11.3 0 Calma 17 Norte 0 -- -- 72
2018-01-16 22:00:00 11.4 3 Norte 17 Norte 0 -- -- 69
2018-01-16 21:00:00 8.9 2 Norte 5 Norte 0 -- -- 87
2018-01-16 20:00:00 8.4 0 Calma 4 Noroeste 0 -- -- 87
2018-01-16 19:00:00 9.5 2 Norte 4 Norte 0 -- -- 84
2018-01-16 18:00:00 11.2 2 Norte 5 Sudoeste 0 -- -- 79
2018-01-16 17:00:00 13.3 2 Sudeste 7 Sur 0 -- -- 68
2018-01-16 16:00:00 14.6 4 Sur 14 Sur 0 -- -- 58
2018-01-16 15:00:00 14.6 4 Sur 12 Sur 0 -- -- 61
2018-01-16 14:00:00 13.9 5 Sur 12 Sudoeste 0 -- -- 61
2018-01-16 13:00:00 13.9 5 Sur 11 Sur 0 -- -- 56
2018-01-16 12:00:00 11.8 3 Sur 8 Sur 0 -- -- 62
2018-01-16 11:00:00 8.3 4 Sur 8 Sur 0 -- -- 75
2018-01-16 10:00:00 4.8 0 Calma 3 Sur 0 -- -- 98
2018-01-16 09:00:00 1.7 0 Calma 3 Noroeste 0 -- -- 98
2018-01-16 08:00:00 1.9 0 Calma 3 Noroeste 0 -- -- 98
2018-01-16 07:00:00 1.9 0 Calma 3 Norte 0 -- -- 98
2018-01-16 06:00:00 2.1 0 Calma 3 Noroeste 0 -- -- 97
2018-01-16 05:00:00 2.2 0 Calma 2 Norte 0 -- -- 97
2018-01-16 04:00:00 2.6 0 Calma 2 Noroeste 0 -- -- 97
2018-01-16 03:00:00 3 0 Calma 2 Noroeste 0 -- -- 97
2018-01-16 02:00:00 3.4 0 Calma 3 Norte 0 -- -- 96
2018-01-16 01:00:00 3.9 0 Calma 3 Norte 0 -- -- 96
2018-01-16 00:00:00 4.1 0 Calma 3 Norte 0 -- -- 96
2018-01-15 23:00:00 4.6 0 Calma 3 Noroeste 0 -- -- 94
2018-01-15 22:00:00 5.3 0 Calma 3 Norte 0 -- -- 94
2018-01-15 21:00:00 6.1 0 Calma 3 Norte 0 -- -- 92
2018-01-15 20:00:00 6.8 2 Norte 3 Norte 0 -- -- 90
2018-01-15 19:00:00 8.4 2 Norte 3 Norte 0 -- -- 85
2018-01-15 18:00:00 10.3 0 Calma 10 Sudoeste 0 -- -- 81
2018-01-15 17:00:00 12 4 Sur 13 Sudoeste 0 -- -- 72
2018-01-15 16:00:00 11.8 0 Calma 13 Sur 0 -- -- 72
2018-01-15 15:00:00 12.7 4 Sudeste 12 Sudeste 0 -- -- 58
2018-01-15 14:00:00 12.5 4 Sudeste 13 Sudoeste 0 -- -- 57
2018-01-15 13:00:00 13.4 4 Sur 10 Sur 0 -- -- 55
2018-01-15 12:00:00 11.9 4 Sudeste 13 Sudeste 0 -- -- 58
2018-01-15 11:00:00 10 4 Nordeste 24 Sudeste 0 -- -- 65
2018-01-15 10:00:00 7.8 3 Sudeste 13 Sudeste 0 -- -- 74
2018-01-15 09:00:00 5.4 2 Norte 21 Norte 0 -- -- 84
2018-01-15 08:00:00 5.3 7 Norte 23 Norte 0 -- -- 84
2018-01-15 07:00:00 4.5 0 Calma 12 Norte 0 -- -- 88
2018-01-15 06:00:00 4.7 3 Este 23 Norte 0 -- -- 88
2018-01-15 05:00:00 3.9 2 Norte 10 Norte 0 -- -- 94
2018-01-15 04:00:00 5 4 Norte 16 Nordeste 0 -- -- 91
2018-01-15 03:00:00 4.4 0 Calma 13 Norte 0 -- -- 96
2018-01-15 02:00:00 3.6 3 Norte 7 Norte 0 -- -- 98
2018-01-15 01:00:00 3.9 3 Norte 4 Noroeste 0 -- -- 97
2018-01-15 00:00:00 4.5 3 Norte 5 Noroeste 0 -- -- 98
2018-01-14 23:00:00 5 0 Calma 2 Noroeste 0.2 -- -- 98
2018-01-14 22:00:00 5.2 0 Calma 4 Noroeste 0 -- -- 98
2018-01-14 21:00:00 4.6 3 Noroeste 4 Norte 0 -- -- 96
2018-01-14 20:00:00 5.4 2 Norte 5 Norte 0 -- -- 94
2018-01-14 19:00:00 6.3 2 Norte 6 Nordeste 0 -- -- 93
2018-01-14 18:00:00 8.3 2 Norte 13 Nordeste 0 -- -- 87
2018-01-14 17:00:00 9.7 3 Noroeste 12 Sudoeste 0 -- -- 87
2018-01-14 16:00:00 9.4 4 Sudeste 13 Sudeste 0 -- -- 84
2018-01-14 15:00:00 9.1 0 Calma 4 Este 0 -- -- 95
2018-01-14 14:00:00 8.6 0 Calma 3 Este 0.2 -- -- 98
2018-01-14 13:00:00 8.2 0 Calma 2 Norte 0.8 -- -- 99
2018-01-14 12:00:00 8.3 0 Calma 2 Este 1 -- -- 100
2018-01-14 11:00:00 7.8 0 Calma 3 Sur 0.6 -- -- 100
2018-01-14 10:00:00 7.2 0 Calma 2 Sudoeste 0.2 -- -- 100
2018-01-14 09:00:00 6.9 0 Calma 2 Norte 0.2 -- -- 100
2018-01-14 08:00:00 6.7 0 Calma 3 Sudoeste 0.2 -- -- 99
2018-01-14 07:00:00 6.2 2 Norte 3 Norte 0 -- -- 99
2018-01-14 06:00:00 5.5 0 Calma 4 Noroeste 0 -- -- 99
2018-01-14 05:00:00 5.6 3 Norte 6 Noroeste 0 -- -- 99
2018-01-14 04:00:00 6 3 Norte 5 Norte 0 -- -- 99
2018-01-14 03:00:00 6 2 Norte 5 Norte 0 -- -- 99
2018-01-14 02:00:00 5.6 3 Noroeste 4 Norte 0 -- -- 98
2018-01-14 01:00:00 5.9 3 Norte 4 Norte 0 -- -- 98
2018-01-14 00:00:00 6.3 2 Norte 3 Norte 0 -- -- 98
2018-01-13 23:00:00 6.4 0 Calma 5 Noroeste 0 -- -- 98
2018-01-13 22:00:00 6.3 3 Norte 4 Noroeste 0 -- -- 97
2018-01-13 21:00:00 7 2 Norte 9 Norte 0 -- -- 97
2018-01-13 20:00:00 7.9 2 Norte 13 Noroeste 0 -- -- 95
2018-01-13 19:00:00 8.2 0 Calma 11 Nordeste 0 -- -- 96
2018-01-13 18:00:00 9.5 0 Calma 9 Oeste 0 -- -- 94
2018-01-13 17:00:00 10.6 0 Calma 6 Sudoeste 0.2 -- -- 95
2018-01-13 16:00:00 10.3 0 Calma 8 Oeste 1.4 -- -- 96
2018-01-13 15:00:00 10.1 0 Calma 2 Nordeste 1 -- -- 95
2018-01-13 14:00:00 9.9 0 Calma 4 Sudeste 0 -- -- 91
2018-01-13 13:00:00 9.6 0 Calma 2 Noroeste 0 -- -- 90
2018-01-13 12:00:00 8.3 0 Calma 5 Este 0 -- -- 87
2018-01-13 11:00:00 6.3 0 Calma 4 Sudeste 0 -- -- 93
2018-01-13 10:00:00 4.7 0 Calma 6 Sur 0 -- -- 91
2018-01-13 09:00:00 2.9 0 Calma 2 Noroeste 0 -- -- 96
2018-01-13 08:00:00 3.1 0 Calma 2 Norte 0 -- -- 95
2018-01-13 07:00:00 3.3 0 Calma 2 Noroeste 0 -- -- 95
2018-01-13 06:00:00 3.1 0 Calma 2 Noroeste 0 -- -- 95
2018-01-13 05:00:00 3.2 0 Calma 2 Norte 0 -- -- 94
2018-01-13 04:00:00 3.6 0 Calma 2 Norte 0 -- -- 94
2018-01-13 03:00:00 3.6 0 Calma 2 Noroeste 0 -- -- 93
2018-01-13 02:00:00 3.7 0 Calma 3 Norte 0 -- -- 93
2018-01-13 01:00:00 3.8 0 Calma 2 Norte 0 -- -- 92
2018-01-13 00:00:00 4.2 0 Calma 2 Norte 0 -- -- 91
2018-01-12 23:00:00 4.6 0 Calma 3 Norte 0 -- -- 89
2018-01-12 22:00:00 5 0 Calma 3 Noroeste 0 -- -- 88
2018-01-12 21:00:00 5.6 0 Calma 3 Norte 0 -- -- 85
2018-01-12 20:00:00 6.3 2 Noroeste 3 Norte 0 -- -- 85
2018-01-12 19:00:00 7.9 2 Norte 4 Norte 0 -- -- 79
2018-01-12 18:00:00 10.3 2 Noroeste 3 Noroeste 0 -- -- 76
2018-01-12 17:00:00 11.3 0 Calma 8 Sudoeste 0 -- -- 69
2018-01-12 16:00:00 13.1 3 Sur 11 Sur 0 -- -- 52
2018-01-12 15:00:00 13.6 4 Sur 14 Sudoeste 0 -- -- 53
2018-01-12 14:00:00 13.8 6 Sur 15 Sur 0 -- -- 58
2018-01-12 13:00:00 14.7 3 Sur 9 Sur 0 -- -- 54
2018-01-12 12:00:00 12.9 3 Sur 11 Sudeste 0 -- -- 61
2018-01-12 11:00:00 10.2 5 Sudeste 13 Este 0 -- -- 66
2018-01-12 10:00:00 5.5 0 Calma 5 Sur 0 -- -- 95
2018-01-12 09:00:00 2.9 0 Calma 3 Noroeste 0 -- -- 96
2018-01-12 08:00:00 3.4 0 Calma 3 Noroeste 0 -- -- 96
2018-01-12 07:00:00 3.6 0 Calma 3 Norte 0 -- -- 95
2018-01-12 06:00:00 3.9 0 Calma 3 Norte 0 -- -- 95
2018-01-12 05:00:00 4.6 0 Calma 3 Noroeste 0 -- -- 94
2018-01-12 04:00:00 5.5 0 Calma 6 Nordeste 0 -- -- 93
2018-01-12 03:00:00 6.5 2 Noroeste 12 Este 0 -- -- 93
2018-01-12 02:00:00 7.1 2 Noroeste 12 Norte 0 -- -- 92
2018-01-12 01:00:00 7.2 3 Norte 12 Este 0 -- -- 93
2018-01-12 00:00:00 7.1 2 Norte 5 Norte 0 -- -- 92
2018-01-11 23:00:00 8.2 2 Noroeste 10 Sudoeste 0 -- -- 91
2018-01-11 22:00:00 8.9 0 Calma 6 Sudoeste 0 -- -- 90
2018-01-11 21:00:00 8.5 0 Calma 5 Norte 0 -- -- 92
2018-01-11 20:00:00 8.6 2 Noroeste 5 Sudeste 0 -- -- 88
2018-01-11 19:00:00 10.1 2 Nordeste 8 Norte 0 -- -- 82
2018-01-11 18:00:00 11.8 0 Calma 15 Sudeste 0 -- -- 76
2018-01-11 17:00:00 12 4 Sur 22 Noroeste 0 -- -- 70
2018-01-11 16:00:00 12.7 6 Norte 24 Norte 0 -- -- 68
2018-01-11 15:00:00 12.2 6 Este 19 Nordeste 0 -- -- 71
2018-01-11 14:00:00 11.4 3 Sur 28 Nordeste 0 -- -- 74
2018-01-11 13:00:00 11 6 Nordeste 26 Norte 0 -- -- 75
2018-01-11 12:00:00 10.9 3 Norte 15 Norte 0 -- -- 75
2018-01-11 11:00:00 10.8 4 Noroeste 16 Nordeste 0 -- -- 72
2018-01-11 10:00:00 9.2 4 Este 12 Este 0 -- -- 76
2018-01-11 09:00:00 6.1 2 Nordeste 10 Nordeste 0 -- -- 89
2018-01-11 08:00:00 6.2 3 Norte 11 Noroeste 0 -- -- 91
2018-01-11 07:00:00 6.6 3 Norte 12 Norte 0 -- -- 91
2018-01-11 06:00:00 7.1 3 Norte 10 Este 0 -- -- 90
2018-01-11 05:00:00 8.6 3 Norte 21 Este 0 -- -- 87
2018-01-11 04:00:00 8.9 0 Calma 13 Norte 0 -- -- 88
2018-01-11 03:00:00 9 2 Norte 13 Norte 0 -- -- 88
2018-01-11 02:00:00 9.7 3 Nordeste 18 Norte 0 -- -- 86
2018-01-11 01:00:00 10.2 3 Oeste 21 Noroeste 0.2 -- -- 87
2018-01-11 00:00:00 10.6 5 Norte 19 Sudoeste 0 -- -- 85
2018-01-10 23:00:00 11.2 3 Oeste 16 Norte 0 -- -- 84
2018-01-10 22:00:00 12.1 3 Noroeste 12 Este 0.2 -- -- 92
2018-01-10 21:00:00 11.9 0 Calma 18 Sudoeste 0 -- -- 92
2018-01-10 20:00:00 11.7 2 Norte 9 Este 0 -- -- 91
2018-01-10 19:00:00 11.1 3 Norte 12 Nordeste 0 -- -- 93
2018-01-10 18:00:00 12.3 0 Calma 7 Sudeste 0 -- -- 90
2018-01-10 17:00:00 13 2 Norte 9 Norte 0 -- -- 88
2018-01-10 16:00:00 13.5 3 Norte 14 Este 0.6 -- -- 86
2018-01-10 15:00:00 15.2 3 Norte 28 Noroeste 0 -- -- 77
2018-01-10 14:00:00 14.8 4 Sudeste 19 Sudoeste 0 -- -- 75
2018-01-10 13:00:00 15.5 4 Sudeste 19 Oeste 0 -- -- 71
2018-01-10 12:00:00 13.7 4 Nordeste 19 Norte 0 -- -- 86
2018-01-10 11:00:00 11.8 4 Nordeste 16 Noroeste 0 -- -- 88
2018-01-10 10:00:00 9.5 2 Noroeste 9 Norte 0 -- -- 98
2018-01-10 09:00:00 8.3 2 Norte 10 Nordeste 0 -- -- 98
2018-01-10 08:00:00 8.8 2 Norte 14 Noroeste 0 -- -- 98
2018-01-10 07:00:00 9.1 3 Norte 15 Oeste 0 -- -- 99
2018-01-10 06:00:00 9.6 2 Noroeste 10 Sudoeste 0 -- -- 100
2018-01-10 05:00:00 9.6 2 Norte 9 Norte 0 -- -- 99
2018-01-10 04:00:00 10.1 0 Calma 4 Este 0 -- -- 99
2018-01-10 03:00:00 10.1 0 Calma 5 Sudeste 0.8 -- -- 100
2018-01-10 02:00:00 10.1 0 Calma 5 Noroeste 2.4 -- -- 99
2018-01-10 01:00:00 10 0 Calma 3 Nordeste 3.4 -- -- 99
2018-01-10 00:00:00 9.8 0 Calma 3 Norte 0.2 -- -- 99
2018-01-09 23:00:00 9.8 0 Calma 4 Noroeste 0.2 -- -- 99
2018-01-09 22:00:00 9.9 0 Calma 9 Sudeste 0.6 -- -- 99
2018-01-09 21:00:00 10 2 Sur 10 Sudoeste 0.6 -- -- 99
2018-01-09 20:00:00 10 4 Sudoeste 15 Sudoeste 1.2 -- -- 99
2018-01-09 19:00:00 9.8 4 Sudeste 17 Este 1.2 -- -- 99
2018-01-09 18:00:00 9.3 0 Calma 6 Sudeste 1.2 -- -- 99
2018-01-09 17:00:00 9.4 2 Oeste 4 Noroeste 1.8 -- -- 99
2018-01-09 16:00:00 9.3 0 Calma 2 Noroeste 0.6 -- -- 99
2018-01-09 15:00:00 8.9 0 Calma 2 Norte 0.4 -- -- 100
2018-01-09 14:00:00 8.4 0 Calma 2 Norte 0 -- -- 99
2018-01-09 13:00:00 6.9 0 Calma 4 Sudoeste 0 -- -- 99
2018-01-09 12:00:00 5.9 0 Calma 3 Sur 0 -- -- 99
2018-01-09 11:00:00 4.3 0 Calma 5 Sur 0 -- -- 100
2018-01-09 10:00:00 3 0 Calma 2 Sur 0 -- -- 100
2018-01-09 09:00:00 1.8 0 Calma 2 Sudoeste 0 -- -- 100
2018-01-09 08:00:00 1.7 0 Calma 2 Norte 0 -- -- 99
2018-01-09 07:00:00 1.1 0 Calma 3 Noroeste 0 -- -- 99
2018-01-09 06:00:00 1.1 0 Calma 2 Nordeste 0 -- -- 99
2018-01-09 05:00:00 1.4 0 Calma 3 Norte 0 -- -- 99
2018-01-09 04:00:00 1.6 0 Calma 3 Norte 0 -- -- 99
2018-01-09 03:00:00 1.7 0 Calma 3 Noroeste 0 -- -- 98
2018-01-09 02:00:00 1.7 0 Calma 2 Noroeste 0 -- -- 98
2018-01-09 01:00:00 2.1 0 Calma 2 Oeste 0 -- -- 98
2018-01-09 00:00:00 2.3 0 Calma 3 Noroeste 0 -- -- 97
2018-01-08 23:00:00 2.9 0 Calma 2 Norte 0 -- -- 97
2018-01-08 22:00:00 3.5 0 Calma 2 Noroeste 0 -- -- 96
2018-01-08 21:00:00 4.7 2 Norte 3 Norte 0 -- -- 95
2018-01-08 20:00:00 5.7 0 Calma 3 Noroeste 0 -- -- 97
2018-01-08 19:00:00 5.4 0 Calma 3 Noroeste 0 -- -- 95
2018-01-08 18:00:00 7 0 Calma 2 Norte 0 -- -- 92
2018-01-08 17:00:00 7.8 0 Calma 4 Este 0 -- -- 92
2018-01-08 16:00:00 7.6 2 Norte 8 Este 0 -- -- 87
2018-01-08 15:00:00 7.4 3 Norte 10 Nordeste 0 -- -- 90
2018-01-08 14:00:00 6.5 0 Calma 10 Sudeste 0.2 -- -- 96
2018-01-08 13:00:00 5.7 2 Norte 9 Sudoeste 1.6 -- -- 97
2018-01-08 12:00:00 5.3 0 Calma 9 Oeste 1.8 -- -- 98
2018-01-08 11:00:00 4.6 0 Calma 7 Oeste 0.4 -- -- 96
2018-01-08 10:00:00 5 3 Sudeste 21 Sudeste 5.4 -- -- 95
2018-01-08 09:00:00 5.9 4 Sur 14 Sur 8.2 -- -- 95
2018-01-08 08:00:00 6.1 2 Sudoeste 11 Oeste 1 -- -- 98
2018-01-08 07:00:00 6 3 Sur 12 Sudeste 1.8 -- -- 96
2018-01-08 06:00:00 6 0 Calma 3 Este 0.2 -- -- 96
2018-01-08 05:00:00 5.8 0 Calma 3 Nordeste 0 -- -- 93
2018-01-08 04:00:00 5.4 0 Calma 2 Noroeste 0 -- -- 94
2018-01-08 03:00:00 5.3 0 Calma 5 Sur 0 -- -- 94
2018-01-08 02:00:00 4.7 0 Calma 2 Sudoeste 0 -- -- 94
2018-01-08 01:00:00 4.3 0 Calma 2 Noroeste 0 -- -- 94
2018-01-08 00:00:00 3.9 0 Calma 4 Sudoeste 0 -- -- 92
2018-01-07 23:00:00 4.6 2 Norte 3 Norte 0 -- -- 89
2018-01-07 22:00:00 5.1 0 Calma 4 Norte 0 -- -- 90
2018-01-07 21:00:00 5.4 0 Calma 3 Norte 0 -- -- 87
2018-01-07 20:00:00 6.3 0 Calma 4 Norte 0 -- -- 84
2018-01-07 19:00:00 6.7 2 Norte 3 Norte 0 -- -- 80
2018-01-07 18:00:00 8.1 0 Calma 9 Sudeste 0 -- -- 74
2018-01-07 17:00:00 8.9 0 Calma 12 Sur 0 -- -- 66
2018-01-07 16:00:00 9.1 4 Sur 13 Sur 0 -- -- 63
2018-01-07 15:00:00 8.4 3 Sudeste 13 Sudoeste 0 -- -- 64
2018-01-07 14:00:00 8.6 4 Norte 14 Sur 0 -- -- 61
2018-01-07 13:00:00 8.5 2 Sudeste 14 Sudeste 0 -- -- 63
2018-01-07 12:00:00 4.7 0 Calma 3 Sur 0 -- -- 86
2018-01-07 11:00:00 3.6 0 Calma 3 Sur 0 -- -- 87
2018-01-07 10:00:00 2.3 0 Calma 10 Norte 0 -- -- 89
2018-01-07 09:00:00 1.3 0 Calma 5 Este 0 -- -- 94
2018-01-07 08:00:00 1.8 0 Calma 8 Norte 0 -- -- 90
2018-01-07 07:00:00 1.5 0 Calma 4 Oeste 0 -- -- 91
2018-01-07 06:00:00 2.2 0 Calma 3 Nordeste 0 -- -- 87
2018-01-07 05:00:00 3.5 0 Calma 13 Este 0 -- -- 83
2018-01-07 04:00:00 3.6 0 Calma 6 Norte 0 -- -- 84
2018-01-07 03:00:00 3.4 2 Norte 4 Noroeste 0 -- -- 85
2018-01-07 02:00:00 3.8 2 Norte 9 Sudeste 0 -- -- 82
2018-01-07 01:00:00 4.7 3 Nordeste 14 Nordeste 0 -- -- 77
2018-01-07 00:00:00 4.1 0 Calma 7 Norte 0 -- -- 82
2018-01-06 23:00:00 4.6 0 Calma 10 Norte 0 -- -- 79
2018-01-06 22:00:00 5.7 2 Nordeste 10 Norte 0 -- -- 72
2018-01-06 21:00:00 5.5 2 Norte 14 Norte 0 -- -- 75
2018-01-06 20:00:00 6.1 3 Norte 15 Norte 0 -- -- 72
2018-01-06 19:00:00 6.7 0 Calma 9 Sur 0 -- -- 80
2018-01-06 18:00:00 8.1 2 Norte 10 Norte 0 -- -- 74
2018-01-06 17:00:00 9.6 3 Norte 15 Norte 0 -- -- 63
2018-01-06 16:00:00 10.1 4 Sudeste 14 Norte 0 -- -- 65
2018-01-06 15:00:00 10.3 6 Norte 23 Nordeste 0 -- -- 66
2018-01-06 14:00:00 9.7 5 Nordeste 22 Noroeste 0 -- -- 72
2018-01-06 13:00:00 8.7 5 Nordeste 17 Norte 0 -- -- 74
2018-01-06 12:00:00 7.7 3 Este 24 Norte 0 -- -- 84
2018-01-06 11:00:00 7.8 7 Norte 31 Nordeste 0 -- -- 83
2018-01-06 10:00:00 6.1 6 Norte 23 Nordeste 0 -- -- 87
2018-01-06 09:00:00 5.6 3 Nordeste 27 Norte 0.2 -- -- 92
2018-01-06 08:00:00 6 6 Norte 23 Nordeste 2 -- -- 95
2018-01-06 07:00:00 7.9 0 Calma 18 Este 8 -- -- 96
2018-01-06 06:00:00 8.8 4 Sudoeste 13 Oeste 4.8 -- -- 96
2018-01-06 05:00:00 8.6 3 Sur 8 Este 2.8 -- -- 97
2018-01-06 04:00:00 8.2 0 Calma 17 Este 8.4 -- -- 95
2018-01-06 03:00:00 10.4 3 Este 22 Sur 1.6 -- -- 90
2018-01-06 02:00:00 11.1 3 Sur 18 Sur 0.4 -- -- 93
2018-01-06 01:00:00 11.7 4 Sur 16 Sudoeste 0.4 -- -- 92
2018-01-06 00:00:00 12.2 4 Sudeste 22 Nordeste 0 -- -- 86
2018-01-05 23:00:00 12.3 4 Sudeste 13 Sudoeste 0 -- -- 86
2018-01-05 22:00:00 12.6 0 Calma 12 Sudoeste 0 -- -- 81
2018-01-05 21:00:00 12.6 3 Sur 15 Sur 0 -- -- 81
2018-01-05 20:00:00 12.5 2 Sudeste 13 Sur 0 -- -- 81
2018-01-05 19:00:00 12.6 2 Sudeste 13 Sur 0 -- -- 80
2018-01-05 18:00:00 13 3 Sudeste 13 Sudoeste 0 -- -- 79
2018-01-05 17:00:00 13.5 3 Sudeste 22 Sur 0 -- -- 77
2018-01-05 16:00:00 14 4 Sudeste 11 Sudeste 0 -- -- 79
2018-01-05 15:00:00 14.5 0 Calma 12 Sudeste 0 -- -- 69
2018-01-05 14:00:00 15.5 3 Sudeste 13 Sur 0 -- -- 63
2018-01-05 13:00:00 14.5 4 Sudoeste 15 Nordeste 0 -- -- 67
2018-01-05 12:00:00 14.4 3 Sur 11 Sur 0 -- -- 66
2018-01-05 11:00:00 14 3 Noroeste 14 Norte 0 -- -- 74
2018-01-05 10:00:00 12.5 0 Calma 8 Oeste 0 -- -- 83
2018-01-05 09:00:00 11.9 0 Calma 5 Noroeste 0 -- -- 85
2018-01-05 08:00:00 12 2 Norte 9 Nordeste 0 -- -- 82
2018-01-05 07:00:00 11.9 0 Calma 8 Norte 0 -- -- 81
2018-01-05 06:00:00 11.7 0 Calma 15 Nordeste 0 -- -- 85
2018-01-05 05:00:00 11.7 4 Norte 21 Nordeste 0 -- -- 85
2018-01-05 04:00:00 11.5 4 Noroeste 16 Sur 0 -- -- 86
2018-01-05 03:00:00 11.2 5 Sudeste 12 Sur 0 -- -- 87
2018-01-05 02:00:00 10.9 3 Sur 14 Este 0 -- -- 85
2018-01-05 01:00:00 11.4 4 Este 14 Sudeste 0 -- -- 84
2018-01-05 00:00:00 11 0 Calma 15 Norte 0 -- -- 87
2018-01-04 23:00:00 11.2 3 Este 14 Nordeste 0 -- -- 85
2018-01-04 22:00:00 12.1 4 Este 15 Sudeste 0 -- -- 81
2018-01-04 21:00:00 12.5 6 Sudeste 19 Este 0 -- -- 82
2018-01-04 20:00:00 12.4 3 Sudoeste 31 Nordeste 0 -- -- 83
2018-01-04 19:00:00 12.7 6 Norte 20 Norte 0 -- -- 83
2018-01-04 18:00:00 13.5 6 Sudeste 20 Nordeste 0 -- -- 80
2018-01-04 17:00:00 14.4 7 Norte 27 Nordeste 0 -- -- 77
2018-01-04 16:00:00 15.7 10 Noroeste 32 Noroeste 0 -- -- 73
2018-01-04 15:00:00 17.7 9 Noroeste 29 Noroeste 0 -- -- 66
2018-01-04 14:00:00 18.6 8 Noroeste 22 Noroeste 0 -- -- 60
2018-01-04 13:00:00 21.1 4 Sur 18 Noroeste 0 -- -- 52
2018-01-04 12:00:00 19.7 3 Sudoeste 8 Sudoeste 0 -- -- 57
2018-01-04 11:00:00 16.3 3 Sudoeste 6 Sudoeste 0 -- -- 66
2018-01-04 10:00:00 12.1 2 Sudoeste 4 Sur 0 -- -- 84
2018-01-04 09:00:00 8.8 0 Calma 4 Noroeste 0 -- -- 90
2018-01-04 08:00:00 9 2 Noroeste 6 Norte 0 -- -- 88
2018-01-04 07:00:00 9.2 3 Norte 6 Noroeste 0 -- -- 88
2018-01-04 06:00:00 10.4 2 Norte 22 Sudeste 0 -- -- 83
2018-01-04 05:00:00 10.8 2 Este 15 Este 0 -- -- 81
2018-01-04 04:00:00 11.5 6 Sudeste 15 Este 0 -- -- 80
2018-01-04 03:00:00 12.5 6 Este 23 Este 0 -- -- 73
2018-01-04 02:00:00 10.7 3 Nordeste 17 Sudeste 0 -- -- 81
2018-01-04 01:00:00 11.2 0 Calma 9 Sudeste 0 -- -- 81
2018-01-04 00:00:00 12.4 3 Sudeste 21 Nordeste 0 -- -- 77
2018-01-03 23:00:00 13.9 3 Este 15 Norte 0 -- -- 71
2018-01-03 22:00:00 15.1 3 Este 17 Este 0 -- -- 67
2018-01-03 21:00:00 15.4 6 Norte 23 Norte 0 -- -- 65
2018-01-03 20:00:00 15 3 Este 14 Noroeste 0 -- -- 66
2018-01-03 19:00:00 15.7 0 Calma 18 Noroeste 0 -- -- 68
2018-01-03 18:00:00 17.9 5 Norte 18 Nordeste 0 -- -- 65
2018-01-03 17:00:00 19.9 5 Norte 15 Norte 0 -- -- 51
2018-01-03 16:00:00 20.8 4 Nordeste 18 Nordeste 0 -- -- 50
2018-01-03 15:00:00 20.9 7 Este 15 Nordeste 0 -- -- 49
2018-01-03 14:00:00 20.2 4 Este 27 Nordeste 0 -- -- 51
2018-01-03 13:00:00 19.4 5 Noroeste 22 Noroeste 0 -- -- 55
2018-01-03 12:00:00 18.4 7 Noroeste 25 Norte 0 -- -- 57
2018-01-03 11:00:00 16.8 10 Norte 30 Norte 0 -- -- 61
2018-01-03 10:00:00 14.6 8 Norte 26 Norte 0 -- -- 70
2018-01-03 09:00:00 12.5 8 Norte 23 Norte 0 -- -- 76
2018-01-03 08:00:00 11.9 3 Norte 16 Sudeste 0 -- -- 78
2018-01-03 07:00:00 12.1 4 Sudeste 21 Sudeste 0 -- -- 76
2018-01-03 06:00:00 10.8 2 Noroeste 16 Sudeste 0 -- -- 83
2018-01-03 05:00:00 10.5 0 Calma 5 Nordeste 0 -- -- 85
2018-01-03 04:00:00 11 2 Norte 7 Sudeste 0 -- -- 82
2018-01-03 03:00:00 11.5 2 Noroeste 10 Sudeste 0 -- -- 80
2018-01-03 02:00:00 12.4 3 Noroeste 12 Sudeste 0 -- -- 76
2018-01-03 01:00:00 14.1 4 Norte 21 Norte 0 -- -- 66
2018-01-03 00:00:00 14.8 6 Noroeste 26 Noroeste 0 -- -- 64
2018-01-02 23:00:00 13.8 7 Norte 18 Norte 0 -- -- 69
2018-01-02 22:00:00 13.2 7 Norte 28 Norte 0 -- -- 70
2018-01-02 21:00:00 12 0 Calma 8 Nordeste 0 -- -- 74
2018-01-02 20:00:00 13.9 4 Norte 20 Noroeste 0 -- -- 64
2018-01-02 19:00:00 13.8 5 Norte 17 Norte 0 -- -- 64
2018-01-02 18:00:00 15.3 4 Norte 12 Norte 0 -- -- 62
2018-01-02 17:00:00 17.3 4 Norte 15 Norte 0 -- -- 56
2018-01-02 16:00:00 18.4 5 Norte 21 Norte 0 -- -- 51
2018-01-02 15:00:00 19.3 5 Norte 24 Noroeste 0 -- -- 47
2018-01-02 14:00:00 18.9 6 Norte 21 Noroeste 0 -- -- 47
2018-01-02 13:00:00 20.2 6 Norte 12 Nordeste 0 -- -- 32
2018-01-02 12:00:00 19.6 5 Norte 20 Norte 0 -- -- 28
2018-01-02 11:00:00 16.1 4 Nordeste 13 Nordeste 0 -- -- 35
2018-01-02 10:00:00 9.5 0 Calma 5 Sur 0 -- -- 69
2018-01-02 09:00:00 6.4 0 Calma 3 Noroeste 0 -- -- 74
2018-01-02 08:00:00 7.6 0 Calma 6 Sudoeste 0 -- -- 70
2018-01-02 07:00:00 8 2 Oeste 10 Sudoeste 0 -- -- 71
2018-01-02 06:00:00 8.2 0 Calma 5 Sudoeste 0 -- -- 71
2018-01-02 05:00:00 10.4 0 Calma 23 Nordeste 0 -- -- 61
2018-01-02 04:00:00 11.3 6 Noroeste 18 Noroeste 0 -- -- 56
2018-01-02 03:00:00 9.3 2 Noroeste 10 Noroeste 0 -- -- 62
2018-01-02 02:00:00 9.5 3 Noroeste 9 Nordeste 0 -- -- 63
2018-01-02 01:00:00 10.3 4 Noroeste 14 Noroeste 0 -- -- 53
2018-01-02 00:00:00 10.1 4 Norte 14 Norte 0 -- -- 50
2018-01-01 23:00:00 10.9 2 Sudoeste 12 Norte 0 -- -- 49
2018-01-01 22:00:00 12.6 6 Norte 23 Norte 0 -- -- 35
2018-01-01 21:00:00 11.7 5 Norte 18 Nordeste 0 -- -- 31
2018-01-01 20:00:00 9.2 0 Calma 5 Norte 0 -- -- 61
2018-01-01 19:00:00 11.3 2 Noroeste 12 Norte 0 -- -- 59
2018-01-01 18:00:00 13.6 4 Norte 18 Noroeste 0 -- -- 55
2018-01-01 17:00:00 15.9 6 Norte 14 Noroeste 0 -- -- 51
2018-01-01 16:00:00 17.4 2 Noroeste 12 Noroeste 0 -- -- 41
2018-01-01 15:00:00 18.1 2 Norte 14 Oeste 0 -- -- 33
2018-01-01 14:00:00 18.3 4 Norte 14 Este 0 -- -- 39
2018-01-01 13:00:00 17.9 3 Sur 13 Este 0 -- -- 35
2018-01-01 12:00:00 16 4 Sudeste 17 Sudeste 0 -- -- 39
2018-01-01 11:00:00 13.2 8 Sudeste 20 Sudeste 0 -- -- 47
2018-01-01 10:00:00 8.3 0 Calma 6 Sur 0 -- -- 72
2018-01-01 09:00:00 5.4 0 Calma 4 Norte 0 -- -- 80
2018-01-01 08:00:00 6.7 3 Oeste 6 Sudoeste 0 -- -- 78
2018-01-01 07:00:00 7 0 Calma 5 Noroeste 0 -- -- 79
2018-01-01 06:00:00 8.5 0 Calma 10 Sudoeste 0 -- -- 74
2018-01-01 05:00:00 8.9 2 Norte 8 Norte 0 -- -- 78
2018-01-01 04:00:00 8.3 4 Norte 8 Norte 0 -- -- 83
2018-01-01 03:00:00 9.7 3 Norte 11 Norte 0 -- -- 79
2018-01-01 02:00:00 11 3 Noroeste 16 Norte 0 -- -- 74
2018-01-01 01:00:00 12.2 4 Norte 14 Nordeste 0 -- -- 83
2018-01-01 00:00:00 13.5 3 Este 13 Oeste 0 -- -- 82
2017-12-31 23:00:00 14 0 Calma 17 Este 0 -- -- 84
2017-12-31 22:00:00 14.3 4 Sudoeste 17 Sur 0 -- -- 80
2017-12-31 21:00:00 14.1 2 Este 14 Norte 0 -- -- 81
2017-12-31 20:00:00 13.3 2 Este 13 Noroeste 0 -- -- 84
2017-12-31 19:00:00 13.3 2 Noroeste 11 Sur 0 -- -- 86
2017-12-31 18:00:00 13.8 2 Noroeste 17 Sudeste 0 -- -- 81
2017-12-31 17:00:00 15.1 0 Calma 10 Sudeste 0 -- -- 73
2017-12-31 16:00:00 15.7 3 Este 12 Nordeste 0 -- -- 73
2017-12-31 15:00:00 15.6 5 Sudeste 13 Sur 0 -- -- 71
2017-12-31 14:00:00 16 4 Sur 15 Sudeste 0 -- -- 72
2017-12-31 13:00:00 14.9 3 Este 11 Oeste 0 -- -- 77
2017-12-31 12:00:00 14.5 0 Calma 13 Nordeste 0 -- -- 84
2017-12-31 11:00:00 13 3 Nordeste 8 Nordeste 0 -- -- 98
2017-12-31 10:00:00 10.8 2 Noroeste 5 Sur 0 -- -- 100
2017-12-31 09:00:00 8.3 0 Calma 3 Noroeste 0 -- -- 99
2017-12-31 08:00:00 8.1 0 Calma 4 Sur 0 -- -- 99
2017-12-31 07:00:00 7.8 0 Calma 3 Sudoeste 0 -- -- 98
2017-12-31 06:00:00 7.7 0 Calma 3 Noroeste 0 -- -- 98
2017-12-31 05:00:00 8.1 0 Calma 3 Norte 0 -- -- 97
2017-12-31 04:00:00 8.5 0 Calma 4 Norte 0 -- -- 97
2017-12-31 03:00:00 8.9 0 Calma 4 Norte 0 -- -- 97
2017-12-31 02:00:00 9.1 0 Calma 3 Norte 0 -- -- 97
2017-12-31 01:00:00 9.4 0 Calma 3 Norte 0 -- -- 97